createdAt,value
2023-08-14T00:00:56.161Z,98915.85
2023-08-14T00:03:39.224Z,98915.84
2023-08-14T00:06:09.318Z,98914.02
2023-08-14T00:08:39.445Z,98915.58
2023-08-14T00:11:09.096Z,98915.84
2023-08-14T00:13:57.670Z,98907.73
2023-08-14T00:16:27.504Z,98907.05
2023-08-14T00:18:56.812Z,98906.63
2023-08-14T00:21:26.893Z,98907.71
2023-08-14T00:23:56.051Z,98909.73
2023-08-14T00:26:25.308Z,98909.45
2023-08-14T00:28:55.259Z,98908.10
2023-08-14T00:31:24.491Z,98910.77
2023-08-14T00:33:54.128Z,98914.16
2023-08-14T00:36:23.412Z,98909.53
2023-08-14T00:38:53.352Z,98911.54
2023-08-14T00:41:23.467Z,98912.98
2023-08-14T00:43:54.926Z,98915.63
2023-08-14T00:46:28.264Z,98921.96
2023-08-14T00:48:59.599Z,98915.82
2023-08-14T00:51:29.435Z,98914.38
2023-08-14T00:53:59.694Z,98912.95
2023-08-14T00:56:30.943Z,98912.30
2023-08-14T00:59:01.008Z,98917.12
2023-08-14T01:01:30.102Z,98922.84
2023-08-14T01:04:01.541Z,98924.37
2023-08-14T01:06:30.996Z,98924.30
2023-08-14T01:09:00.624Z,98927.83
2023-08-14T01:11:35.651Z,98929.75
2023-08-14T01:14:29.577Z,98930.97
2023-08-14T01:17:07.620Z,98926.58
2023-08-14T01:19:45.485Z,98927.76
2023-08-14T01:22:57.370Z,98923.96
2023-08-14T01:25:33.403Z,98924.05
2023-08-14T01:28:04.624Z,98925.90
2023-08-14T01:30:35.061Z,98923.10
2023-08-14T01:33:05.692Z,98921.81
2023-08-14T01:35:48.196Z,98919.58
2023-08-14T01:39:03.020Z,98919.13
2023-08-14T01:42:12.680Z,98915.23
2023-08-14T01:44:44.329Z,98914.98
2023-08-14T01:47:18.643Z,98913.46
2023-08-14T01:49:51.601Z,98914.91
2023-08-14T01:52:21.887Z,98912.11
2023-08-14T01:54:52.412Z,98906.05
2023-08-14T01:57:22.331Z,98908.12
2023-08-14T01:59:51.597Z,98906.67
2023-08-14T02:02:21.582Z,98907.80
2023-08-14T02:04:54.150Z,98909.23
2023-08-14T02:07:24.952Z,98908.27
2023-08-14T02:09:54.119Z,98907.95
2023-08-14T02:12:24.970Z,98906.36
2023-08-14T02:14:55.793Z,98904.59
2023-08-14T02:17:25.279Z,98899.15
2023-08-14T02:19:56.620Z,98894.05
2023-08-14T02:22:25.856Z,98893.80
2023-08-14T02:24:55.885Z,98890.20
2023-08-14T02:27:25.206Z,98888.77
2023-08-14T02:29:55.034Z,98886.85
2023-08-14T02:32:25.122Z,98890.22
2023-08-14T02:34:55.097Z,98889.98
2023-08-14T02:37:26.337Z,98888.61
2023-08-14T02:39:57.939Z,98890.45
2023-08-14T02:42:28.473Z,98888.27
2023-08-14T02:44:59.731Z,98888.21
2023-08-14T02:47:28.859Z,98887.73
2023-08-14T02:49:58.672Z,98891.81
2023-08-14T02:52:28.300Z,98890.45
2023-08-14T02:54:58.129Z,98889.77
2023-08-14T02:57:28.154Z,98888.05
2023-08-14T02:59:59.187Z,98886.92
2023-08-14T03:02:29.676Z,98883.02
2023-08-14T03:04:59.788Z,98882.38
2023-08-14T03:07:29.055Z,98876.93
2023-08-14T03:09:58.361Z,98874.92
2023-08-14T03:12:27.575Z,98874.52
2023-08-14T03:14:57.117Z,98872.52
2023-08-14T03:17:26.941Z,98869.15
2023-08-14T03:19:56.700Z,98871.52
2023-08-14T03:22:26.385Z,98870.51
2023-08-14T03:24:56.344Z,98869.54
2023-08-14T03:27:26.650Z,98870.83
2023-08-14T03:29:56.470Z,98869.53
2023-08-14T03:32:26.364Z,98870.39
2023-08-14T03:34:56.714Z,98871.59
2023-08-14T03:37:26.242Z,98874.55
2023-08-14T03:39:57.161Z,98874.88
2023-08-14T03:42:26.834Z,98874.80
2023-08-14T03:44:56.064Z,98876.56
2023-08-14T03:47:25.515Z,98874.05
2023-08-14T03:49:54.779Z,98877.31
2023-08-14T03:52:24.552Z,98876.91
2023-08-14T03:54:54.583Z,98876.44
2023-08-14T03:57:25.500Z,98878.36
2023-08-14T03:59:54.666Z,98876.46
2023-08-14T04:02:24.438Z,98878.33
2023-08-14T04:04:53.640Z,98883.54
2023-08-14T04:07:22.945Z,98881.79
2023-08-14T04:09:52.693Z,98882.67
2023-08-14T04:12:22.867Z,98880.04
2023-08-14T04:14:53.884Z,98881.47
2023-08-14T04:17:23.246Z,98884.98
2023-08-14T04:19:52.086Z,98886.61
2023-08-14T04:22:21.948Z,98888.35
2023-08-14T04:24:51.368Z,98891.08
2023-08-14T04:27:20.903Z,98893.77
2023-08-14T04:29:51.509Z,98892.13
2023-08-14T04:32:21.205Z,98886.08
2023-08-14T04:34:51.107Z,98887.75
2023-08-14T04:37:21.877Z,98884.98
2023-08-14T04:39:52.311Z,98893.84
2023-08-14T04:42:22.623Z,98893.92
2023-08-14T04:44:52.554Z,98897.23
2023-08-14T04:47:21.588Z,98900.61
2023-08-14T04:49:52.187Z,98907.33
2023-08-14T04:52:24.226Z,98907.63
2023-08-14T04:54:54.751Z,98905.16
2023-08-14T04:57:24.301Z,98904.92
2023-08-14T04:59:53.813Z,98905.59
2023-08-14T05:02:23.639Z,98905.38
2023-08-14T05:04:53.944Z,98904.52
2023-08-14T05:07:26.977Z,98906.48
2023-08-14T05:09:57.373Z,98904.67
2023-08-14T05:12:27.124Z,98905.85
2023-08-14T05:14:56.532Z,98903.16
2023-08-14T05:17:26.658Z,98902.14
2023-08-14T05:19:56.395Z,98907.05
2023-08-14T05:22:25.716Z,98910.02
2023-08-14T05:24:55.387Z,98908.13
2023-08-14T05:27:26.959Z,98908.70
2023-08-14T05:29:59.089Z,98912.25
2023-08-14T05:32:29.189Z,98909.02
2023-08-14T05:34:58.844Z,98911.92
2023-08-14T05:37:28.513Z,98912.41
2023-08-14T05:39:57.967Z,98914.73
2023-08-14T05:42:27.537Z,98922.17
2023-08-14T05:44:56.825Z,98923.29
2023-08-14T05:47:26.796Z,98926.02
2023-08-14T05:49:57.050Z,98923.63
2023-08-14T05:52:27.058Z,98925.14
2023-08-14T05:54:59.336Z,98928.17
2023-08-14T05:57:30.621Z,98928.42
2023-08-14T06:00:00.801Z,98932.33
2023-08-14T06:02:30.322Z,98923.92
2023-08-14T06:05:00.994Z,98926.94
2023-08-14T06:07:31.142Z,98928.84
2023-08-14T06:10:01.350Z,98924.95
2023-08-14T06:12:30.929Z,98925.52
2023-08-14T06:15:00.635Z,98922.09
2023-08-14T06:17:32.665Z,98924.35
2023-08-14T06:20:02.742Z,98924.11
2023-08-14T06:22:32.615Z,98922.89
2023-08-14T06:25:02.741Z,98924.65
2023-08-14T06:27:32.780Z,98926.08
2023-08-14T06:30:02.554Z,98922.41
2023-08-14T06:32:32.175Z,98927.82
2023-08-14T06:35:02.107Z,98925.05
2023-08-14T06:37:31.944Z,98928.16
2023-08-14T06:40:01.496Z,98928.66
2023-08-14T06:42:30.772Z,98924.34
2023-08-14T06:45:00.173Z,98925.33
2023-08-14T06:47:30.414Z,98925.84
2023-08-14T06:49:59.777Z,98925.16
2023-08-14T06:52:29.313Z,98929.38
2023-08-14T06:54:58.930Z,98931.73
2023-08-14T06:57:28.505Z,98930.19
2023-08-14T06:59:58.520Z,98923.06
2023-08-14T07:02:28.441Z,98922.03
2023-08-14T07:04:58.593Z,98923.26
2023-08-14T07:07:28.278Z,98924.00
2023-08-14T07:09:58.468Z,98922.75
2023-08-14T07:12:29.062Z,98921.40
2023-08-14T07:14:58.932Z,98920.03
2023-08-14T07:17:29.398Z,98913.75
2023-08-14T07:19:59.038Z,98915.69
2023-08-14T07:22:28.971Z,98908.06
2023-08-14T07:24:59.294Z,98909.23
2023-08-14T07:27:29.149Z,98905.87
2023-08-14T07:30:00.564Z,98908.59
2023-08-14T07:32:30.568Z,98908.43
2023-08-14T07:35:00.259Z,98905.27
2023-08-14T07:37:29.681Z,98904.42
2023-08-14T07:40:00.237Z,98898.58
2023-08-14T07:42:30.718Z,98898.71
2023-08-14T07:45:00.560Z,98898.20
2023-08-14T07:47:29.627Z,98896.84
2023-08-14T07:49:59.244Z,98896.26
2023-08-14T07:52:32.164Z,98899.31
2023-08-14T07:55:01.823Z,98903.91
2023-08-14T07:57:31.644Z,98904.68
2023-08-14T08:00:00.923Z,98901.48
2023-08-14T08:02:30.269Z,98905.52
2023-08-14T08:04:59.865Z,98905.86
2023-08-14T08:09:59.784Z,98911.39
2023-08-14T08:12:29.148Z,98913.61
2023-08-14T08:14:58.870Z,98910.30
2023-08-14T08:17:28.396Z,98910.30
2023-08-14T08:19:58.938Z,98913.42
2023-08-14T08:22:28.959Z,98913.63
2023-08-14T08:24:58.697Z,98913.38
2023-08-14T08:27:27.786Z,98912.91
2023-08-14T08:29:56.805Z,98914.99
2023-08-14T08:32:26.965Z,98914.93
2023-08-14T08:34:58.218Z,98913.90
2023-08-14T08:37:27.743Z,98918.72
2023-08-14T08:39:57.126Z,98921.08
2023-08-14T08:42:28.042Z,98916.21
2023-08-14T08:45:04.037Z,98918.41
2023-08-14T08:47:40.192Z,98920.54
2023-08-14T08:50:11.643Z,98919.23
2023-08-14T08:52:41.691Z,98916.58
2023-08-14T08:55:11.043Z,98920.69
2023-08-14T08:57:41.479Z,98922.88
2023-08-14T09:00:11.765Z,98919.60
2023-08-14T09:02:41.525Z,98916.64
2023-08-14T09:05:11.199Z,98915.15
2023-08-14T09:07:40.312Z,98913.15
2023-08-14T09:10:10.445Z,98908.28
2023-08-14T09:12:40.806Z,98910.05
2023-08-14T09:15:11.214Z,98908.08
2023-08-14T09:17:40.734Z,98902.07
2023-08-14T09:20:28.241Z,98901.22
2023-08-14T09:23:00.616Z,98901.34
2023-08-14T09:25:30.132Z,98900.53
2023-08-14T09:28:00.507Z,98902.16
2023-08-14T09:30:30.607Z,98901.15
2023-08-14T09:33:00.590Z,98903.63
2023-08-14T09:35:30.414Z,98901.80
2023-08-14T09:38:00.809Z,98900.08
2023-08-14T09:40:30.886Z,98897.10
2023-08-14T09:43:01.180Z,98894.05
2023-08-14T09:45:31.128Z,98890.27
2023-08-14T09:48:07.361Z,98890.19
2023-08-14T09:50:37.608Z,98886.33
2023-08-14T09:53:07.339Z,98883.13
2023-08-14T09:55:37.729Z,98884.81
2023-08-14T09:58:13.706Z,98882.98
2023-08-14T10:00:43.517Z,98880.82
2023-08-14T10:03:14.112Z,98879.09
2023-08-14T10:05:44.488Z,98874.16
2023-08-14T10:08:16.094Z,98873.78
2023-08-14T10:10:56.115Z,98876.72
2023-08-14T10:13:42.739Z,98871.52
2023-08-14T10:16:19.054Z,98869.86
2023-08-14T10:18:50.442Z,98871.48
2023-08-14T10:21:21.079Z,98867.35
2023-08-14T10:23:54.305Z,98862.13
2023-08-14T10:26:27.390Z,98857.64
2023-08-14T10:28:59.937Z,98857.81
2023-08-14T10:31:31.589Z,98855.85
2023-08-14T10:34:03.391Z,98856.17
2023-08-14T10:36:39.275Z,98850.86
2023-08-14T10:39:18.900Z,98848.56
2023-08-14T10:41:49.234Z,98844.17
2023-08-14T10:44:19.243Z,98841.84
2023-08-14T10:46:48.766Z,98838.77
2023-08-14T10:49:18.575Z,98841.86
2023-08-14T10:51:49.624Z,98842.43
2023-08-14T10:54:19.558Z,98834.69
2023-08-14T10:56:50.907Z,98835.24
2023-08-14T10:59:28.305Z,98836.80
2023-08-14T11:02:17.885Z,98833.35
2023-08-14T11:05:13.987Z,98828.74
2023-08-14T11:07:58.601Z,98822.87
2023-08-14T11:10:28.768Z,98822.91
2023-08-14T11:12:58.956Z,98820.45
2023-08-14T11:15:31.490Z,98820.58
2023-08-14T11:18:02.118Z,98820.55
2023-08-14T11:20:32.226Z,98820.56
2023-08-14T11:23:02.485Z,98814.08
2023-08-14T11:25:36.313Z,98815.41
2023-08-14T11:28:08.012Z,98814.91
2023-08-14T11:30:38.909Z,98811.94
2023-08-14T11:33:09.490Z,98816.64
2023-08-14T11:35:42.178Z,98813.59
2023-08-14T11:40:50.144Z,98803.29
2023-08-14T11:43:20.434Z,98802.63
2023-08-14T11:45:51.340Z,98804.64
2023-08-14T11:48:21.164Z,98803.69
2023-08-14T11:50:52.626Z,98802.26
2023-08-14T11:53:23.828Z,98803.33
2023-08-14T11:55:53.878Z,98805.73
2023-08-14T11:58:25.081Z,98803.07
2023-08-14T12:00:58.221Z,98803.31
2023-08-14T12:03:28.694Z,98798.42
2023-08-14T12:06:05.775Z,98791.59
2023-08-14T12:08:37.245Z,98792.20
2023-08-14T12:11:13.358Z,98790.69
2023-08-14T12:13:55.302Z,98785.34
2023-08-14T12:16:28.853Z,98780.30
2023-08-14T12:19:04.249Z,98774.98
2023-08-14T12:21:35.818Z,98772.64
2023-08-14T12:24:08.896Z,98772.42
2023-08-14T12:26:42.647Z,98764.27
2023-08-14T12:29:17.605Z,98761.98
2023-08-14T12:31:48.754Z,98758.52
2023-08-14T12:34:24.447Z,98760.02
2023-08-14T12:36:56.003Z,98754.77
2023-08-14T12:39:25.823Z,98754.25
2023-08-14T12:42:01.695Z,98753.85
2023-08-14T12:44:32.943Z,98752.80
2023-08-14T12:47:03.648Z,98752.90
2023-08-14T12:49:37.981Z,98750.88
2023-08-14T12:52:10.628Z,98750.09
2023-08-14T12:54:41.735Z,98746.95
2023-08-14T12:57:15.801Z,98745.70
2023-08-14T12:59:50.699Z,98741.58
2023-08-14T13:04:58.996Z,98715.48
2023-08-14T13:07:31.787Z,98711.37
2023-08-14T13:10:02.434Z,98724.67
2023-08-14T13:12:34.234Z,98735.78
2023-08-14T13:15:05.990Z,98735.92
2023-08-14T13:17:36.863Z,98740.64
2023-08-14T13:20:10.050Z,98736.02
2023-08-14T13:22:42.104Z,98730.64
2023-08-14T13:25:13.263Z,98727.55
2023-08-14T13:30:20.303Z,98721.16
2023-08-14T13:32:51.887Z,98718.05
2023-08-14T13:35:21.669Z,98718.38
2023-08-14T13:37:53.590Z,98719.02
2023-08-14T13:40:25.372Z,98715.70
2023-08-14T13:42:57.673Z,98708.46
2023-08-14T13:45:29.176Z,98709.58
2023-08-14T13:48:01.674Z,98703.14
2023-08-14T13:50:35.832Z,98702.83
2023-08-14T13:53:07.573Z,98701.91
2023-08-14T13:55:37.508Z,98700.32
2023-08-14T13:58:08.439Z,98698.88
2023-08-14T14:00:41.025Z,98695.55
2023-08-14T14:03:13.123Z,98694.81
2023-08-14T14:05:44.574Z,98697.27
2023-08-14T14:08:16.011Z,98697.84
2023-08-14T14:10:48.328Z,98699.69
2023-08-14T14:13:19.129Z,98701.41
2023-08-14T14:15:49.821Z,98702.08
2023-08-14T14:18:20.142Z,98701.00
2023-08-14T14:20:51.647Z,98700.48
2023-08-14T14:23:23.008Z,98702.58
2023-08-14T14:25:53.462Z,98701.27
2023-08-14T14:28:25.028Z,98696.98
2023-08-14T14:30:58.126Z,98699.23
2023-08-14T14:33:29.428Z,98697.50
2023-08-14T14:36:02.308Z,98695.77
2023-08-14T14:38:35.288Z,98692.59
2023-08-14T14:41:08.124Z,98691.16
2023-08-14T14:43:39.750Z,98692.61
2023-08-14T14:46:11.337Z,98694.14
2023-08-14T14:48:42.116Z,98692.66
2023-08-14T14:51:12.542Z,98693.38
2023-08-14T14:53:44.072Z,98694.16
2023-08-14T14:56:16.508Z,98693.59
2023-08-14T14:58:48.128Z,98694.69
2023-08-14T15:01:20.295Z,98693.42
2023-08-14T15:03:53.363Z,98690.92
2023-08-14T15:06:26.331Z,98690.19
2023-08-14T15:08:59.006Z,98690.28
2023-08-14T15:11:31.086Z,98685.50
2023-08-14T15:14:02.199Z,98682.68
2023-08-14T15:16:33.742Z,98680.58
2023-08-14T15:19:05.048Z,98677.60
2023-08-14T15:21:36.353Z,98677.99
2023-08-14T15:24:08.712Z,98678.38
2023-08-14T15:26:40.818Z,98677.86
2023-08-14T15:29:11.763Z,98680.42
2023-08-14T15:31:42.101Z,98680.48
2023-08-14T15:34:14.076Z,98678.36
2023-08-14T15:36:45.062Z,98677.13
2023-08-14T15:39:15.771Z,98682.94
2023-08-14T15:41:46.475Z,98680.66
2023-08-14T15:44:16.753Z,98682.20
2023-08-14T15:46:48.366Z,98681.25
2023-08-14T15:49:19.437Z,98682.27
2023-08-14T15:51:50.780Z,98681.98
2023-08-14T15:54:22.760Z,98677.63
2023-08-14T15:56:55.538Z,98678.47
2023-08-14T15:59:30.272Z,98677.66
2023-08-14T16:02:01.078Z,98676.21
2023-08-14T16:04:32.483Z,98671.19
2023-08-14T16:07:04.576Z,98673.52
2023-08-14T16:09:36.857Z,98673.35
2023-08-14T16:12:09.974Z,98668.66
2023-08-14T16:14:41.886Z,98668.10
2023-08-14T16:17:14.958Z,98668.66
2023-08-14T16:19:45.091Z,98671.65
2023-08-14T16:22:15.457Z,98673.20
2023-08-14T16:24:46.105Z,98675.22
2023-08-14T16:27:16.373Z,98674.25
2023-08-14T16:29:48.093Z,98676.19
2023-08-14T16:32:19.172Z,98671.76
2023-08-14T16:34:50.120Z,98675.80
2023-08-14T16:37:20.035Z,98678.77
2023-08-14T16:39:50.931Z,98676.61
2023-08-14T16:42:22.699Z,98681.27
2023-08-14T16:44:54.579Z,98688.19
2023-08-14T16:47:27.165Z,98694.42
2023-08-14T16:50:00.670Z,98702.45
2023-08-14T16:52:34.027Z,98703.44
2023-08-14T16:55:04.882Z,98701.61
2023-08-14T16:57:35.800Z,98705.75
2023-08-14T17:00:07.625Z,98705.91
2023-08-14T17:02:39.635Z,98708.40
2023-08-14T17:05:10.473Z,98714.15
2023-08-14T17:07:43.116Z,98715.08
2023-08-14T17:10:13.639Z,98714.48
2023-08-14T17:12:43.964Z,98714.04
2023-08-14T17:15:13.806Z,98713.39
2023-08-14T17:17:43.842Z,98712.98
2023-08-14T17:20:17.153Z,98712.77
2023-08-14T17:22:48.452Z,98711.99
2023-08-14T17:25:18.317Z,98707.20
2023-08-14T17:27:48.985Z,98710.16
2023-08-14T17:30:18.524Z,98716.33
2023-08-14T17:32:52.746Z,98723.09
2023-08-14T17:35:24.172Z,98724.21
2023-08-14T17:37:53.856Z,98730.68
2023-08-14T17:40:25.036Z,98742.05
2023-08-14T17:42:57.074Z,98752.57
2023-08-14T17:45:27.244Z,98758.73
2023-08-14T17:47:59.521Z,98764.61
2023-08-14T17:50:31.623Z,98769.30
2023-08-14T17:53:03.549Z,98775.96
2023-08-14T17:55:33.645Z,98774.97
2023-08-14T17:58:03.282Z,98776.77
2023-08-14T18:00:33.641Z,98783.73
2023-08-14T18:03:05.740Z,98788.23
2023-08-14T18:05:36.412Z,98791.88
2023-08-14T18:08:08.569Z,98792.06
2023-08-14T18:10:39.254Z,98796.46
2023-08-14T18:13:09.507Z,98800.52
2023-08-14T18:15:41.196Z,98800.31
2023-08-14T18:18:12.905Z,98794.27
2023-08-14T18:20:46.646Z,98796.74
2023-08-14T18:23:17.630Z,98798.31
2023-08-14T18:25:47.577Z,98799.95
2023-08-14T18:28:18.594Z,98801.94
2023-08-14T18:30:50.598Z,98809.41
2023-08-14T18:33:22.013Z,98813.24
2023-08-14T18:35:52.263Z,98815.71
2023-08-14T18:38:23.017Z,98816.50
2023-08-14T18:40:53.738Z,98818.97
2023-08-14T18:43:23.195Z,98819.00
2023-08-14T18:45:55.681Z,98817.77
2023-08-14T18:48:25.815Z,98818.59
2023-08-14T18:50:57.088Z,98825.52
2023-08-14T18:53:30.422Z,98823.48
2023-08-14T18:56:01.961Z,98827.52
2023-08-14T18:58:33.912Z,98829.09
2023-08-14T19:01:05.656Z,98829.52
2023-08-14T19:03:35.941Z,98830.62
2023-08-14T19:06:06.819Z,98832.14
2023-08-14T19:08:37.891Z,98832.16
2023-08-14T19:11:09.448Z,98835.04
2023-08-14T19:13:39.635Z,98835.39
2023-08-14T19:16:09.211Z,98834.39
2023-08-14T19:18:41.532Z,98841.42
2023-08-14T19:21:14.356Z,98841.79
2023-08-14T19:23:48.017Z,98842.98
2023-08-14T19:26:27.620Z,98846.60
2023-08-14T19:28:59.141Z,98853.23
2023-08-14T19:31:29.888Z,98850.85
2023-08-14T19:34:03.418Z,98853.23
2023-08-14T19:36:33.816Z,98859.52
2023-08-14T19:39:03.354Z,98855.01
2023-08-14T19:41:33.275Z,98854.55
2023-08-14T19:44:06.499Z,98853.30
2023-08-14T19:46:37.688Z,98854.83
2023-08-14T19:49:07.129Z,98857.23
2023-08-14T19:51:37.792Z,98856.63
2023-08-14T19:54:09.169Z,98858.05
2023-08-14T19:56:38.714Z,98861.87
2023-08-14T19:59:09.485Z,98860.38
2023-08-14T20:01:39.410Z,98863.42
2023-08-14T20:04:10.177Z,98866.29
2023-08-14T20:06:44.055Z,98868.75
2023-08-14T20:09:14.390Z,98873.64
2023-08-14T20:11:46.878Z,98882.27
2023-08-14T20:14:18.420Z,98881.86
2023-08-14T20:16:49.005Z,98884.73
2023-08-14T20:19:22.773Z,98885.21
2023-08-14T20:21:53.624Z,98885.20
2023-08-14T20:24:23.794Z,98889.55
2023-08-14T20:26:55.525Z,98888.05
2023-08-14T20:29:27.566Z,98888.25
2023-08-14T20:31:57.449Z,98882.81
2023-08-14T20:34:29.237Z,98888.65
2023-08-14T20:36:59.770Z,98895.06
2023-08-14T20:39:30.530Z,98894.70
2023-08-14T20:42:00.082Z,98897.02
2023-08-14T20:44:30.961Z,98895.28
2023-08-14T20:47:03.675Z,98895.27
2023-08-14T20:49:34.537Z,98896.47
2023-08-14T20:52:04.365Z,98898.27
2023-08-14T20:54:34.572Z,98898.96
2023-08-14T20:57:05.143Z,98896.77
2023-08-14T20:59:38.328Z,98894.40
2023-08-14T21:02:09.399Z,98897.39
2023-08-14T21:04:39.805Z,98889.80
2023-08-14T21:07:10.046Z,98886.36
2023-08-14T21:09:39.723Z,98895.07
2023-08-14T21:12:11.897Z,98894.86
2023-08-14T21:14:42.418Z,98895.20
2023-08-14T21:17:12.532Z,98896.74
2023-08-14T21:19:41.855Z,98898.17
2023-08-14T21:22:11.310Z,98894.55
2023-08-14T21:24:41.371Z,98894.73
2023-08-14T21:27:11.373Z,98896.39
2023-08-14T21:29:41.035Z,98900.30
2023-08-14T21:32:11.237Z,98901.95
2023-08-14T21:34:42.192Z,98903.96
2023-08-14T21:37:12.367Z,98905.99
2023-08-14T21:39:43.148Z,98904.55
2023-08-14T21:42:13.970Z,98905.29
2023-08-14T21:44:44.280Z,98907.14
2023-08-14T21:47:13.874Z,98909.42
2023-08-14T21:49:45.620Z,98908.08
2023-08-14T21:52:15.754Z,98907.59
2023-08-14T21:54:45.843Z,98908.45
2023-08-14T21:57:18.078Z,98911.41
2023-08-14T21:59:49.649Z,98913.57
2023-08-14T22:02:20.001Z,98911.48
2023-08-14T22:04:50.376Z,98913.29
2023-08-14T22:07:21.050Z,98916.78
2023-08-14T22:09:52.428Z,98914.60
2023-08-14T22:12:23.237Z,98918.23
2023-08-14T22:14:53.749Z,98911.39
2023-08-14T22:17:23.668Z,98912.27
2023-08-14T22:19:53.345Z,98911.27
2023-08-14T22:22:23.233Z,98911.27
2023-08-14T22:24:56.309Z,98918.05
2023-08-14T22:27:28.110Z,98918.80
2023-08-14T22:29:59.960Z,98916.67
2023-08-14T22:32:31.147Z,98917.05
2023-08-14T22:35:01.332Z,98920.11
2023-08-14T22:37:34.551Z,98918.48
2023-08-14T22:40:06.049Z,98920.38
2023-08-14T22:42:40.952Z,98916.53
2023-08-14T22:45:12.339Z,98916.15
2023-08-14T22:47:42.933Z,98921.48
2023-08-14T22:50:13.519Z,98923.82
2023-08-14T22:52:43.667Z,98925.92
2023-08-14T22:55:13.349Z,98926.25
2023-08-14T22:57:45.956Z,98927.38
2023-08-14T23:00:18.288Z,98926.37
2023-08-14T23:02:49.706Z,98923.14
2023-08-14T23:05:21.238Z,98921.79
2023-08-14T23:07:53.083Z,98922.86
2023-08-14T23:10:24.893Z,98924.76
2023-08-14T23:12:55.710Z,98922.10
2023-08-14T23:15:25.811Z,98920.64
2023-08-14T23:17:55.798Z,98924.60
2023-08-14T23:20:26.321Z,98921.63
2023-08-14T23:22:55.931Z,98927.02
2023-08-14T23:25:26.139Z,98923.83
2023-08-14T23:27:56.784Z,98925.25
2023-08-14T23:30:27.235Z,98923.88
2023-08-14T23:32:56.614Z,98930.98
2023-08-14T23:35:26.760Z,98931.81
2023-08-14T23:37:57.025Z,98930.28
2023-08-14T23:40:26.681Z,98930.63
2023-08-14T23:42:56.361Z,98931.52
2023-08-14T23:45:25.737Z,98928.75
2023-08-14T23:47:55.070Z,98931.84
2023-08-14T23:50:24.406Z,98930.17
2023-08-14T23:52:54.254Z,98925.80
2023-08-14T23:55:24.083Z,98921.48
2023-08-14T23:57:53.728Z,98929.14
